createdAt,value
2022-07-26T00:00:04.873Z,24.62
2022-07-26T00:01:09.654Z,24.63
2022-07-26T00:02:18.913Z,24.66
2022-07-26T00:03:23.427Z,24.67
2022-07-26T00:04:27.860Z,24.68
2022-07-26T00:05:32.991Z,24.7
2022-07-26T00:06:37.472Z,24.71
2022-07-26T00:07:42.591Z,24.74
2022-07-26T00:08:47.093Z,24.74
2022-07-26T00:10:08.810Z,24.76
2022-07-26T00:11:12.732Z,24.77
2022-07-26T00:12:17.235Z,24.8
2022-07-26T00:13:21.676Z,24.82
2022-07-26T00:14:26.208Z,24.83
2022-07-26T00:15:30.745Z,24.83
2022-07-26T00:16:35.579Z,24.85
2022-07-26T00:17:40.170Z,24.86
2022-07-26T00:18:44.714Z,24.85
2022-07-26T00:19:49.246Z,24.86
2022-07-26T00:20:55.750Z,24.86
2022-07-26T00:22:00.102Z,24.86
2022-07-26T00:23:04.773Z,24.86
2022-07-26T00:24:09.325Z,24.86
2022-07-26T00:25:13.940Z,24.85
2022-07-26T00:26:18.461Z,24.85
2022-07-26T00:27:25.896Z,24.85
2022-07-26T00:28:30.270Z,24.86
2022-07-26T00:29:34.818Z,24.85
2022-07-26T00:30:39.318Z,24.86
2022-07-26T00:31:44.079Z,24.86
2022-07-26T00:32:48.728Z,24.86
2022-07-26T00:33:53.243Z,24.86
2022-07-26T00:34:57.751Z,24.87
2022-07-26T00:36:02.336Z,24.87
2022-07-26T00:37:06.836Z,24.87
2022-07-26T00:38:11.405Z,24.87
2022-07-26T00:39:15.915Z,24.87
2022-07-26T00:40:20.429Z,24.87
2022-07-26T00:41:25.046Z,24.86
2022-07-26T00:42:30.138Z,24.85
2022-07-26T00:43:35.593Z,24.85
2022-07-26T00:44:40.082Z,24.84
2022-07-26T00:45:44.813Z,24.82
2022-07-26T00:46:49.401Z,24.81
2022-07-26T00:47:53.907Z,24.82
2022-07-26T00:48:58.737Z,24.81
2022-07-26T00:50:03.383Z,24.8
2022-07-26T00:51:07.903Z,24.81
2022-07-26T00:52:12.455Z,24.79
2022-07-26T00:53:16.970Z,24.79
2022-07-26T00:54:21.491Z,24.8
2022-07-26T00:55:26.019Z,24.79
2022-07-26T00:56:30.543Z,24.79
2022-07-26T00:57:35.136Z,24.78
2022-07-26T00:58:39.839Z,24.78
2022-07-26T00:59:48.669Z,24.79
2022-07-26T01:00:53.718Z,24.78
2022-07-26T01:01:59.458Z,24.78
2022-07-26T01:03:04.170Z,24.78
2022-07-26T01:04:10.010Z,24.78
2022-07-26T01:05:15.005Z,24.78
2022-07-26T01:06:27.716Z,24.78
2022-07-26T01:07:32.019Z,24.78
2022-07-26T01:08:36.499Z,24.78
2022-07-26T01:09:40.959Z,24.77
2022-07-26T01:10:45.478Z,24.77
2022-07-26T01:11:50.573Z,24.77
2022-07-26T01:12:55.117Z,24.75
2022-07-26T01:13:59.676Z,24.75
2022-07-26T01:15:04.222Z,24.74
2022-07-26T01:16:09.060Z,24.73
2022-07-26T01:17:13.666Z,24.73
2022-07-26T01:18:18.164Z,24.72
2022-07-26T01:19:22.692Z,24.71
2022-07-26T01:20:27.257Z,24.7
2022-07-26T01:21:31.803Z,24.7
2022-07-26T01:22:36.397Z,24.69
2022-07-26T01:23:41.487Z,24.68
2022-07-26T01:24:46.007Z,24.68
2022-07-26T01:25:52.341Z,24.66
2022-07-26T01:26:56.767Z,24.67
2022-07-26T01:28:01.300Z,24.66
2022-07-26T01:29:05.818Z,24.66
2022-07-26T01:30:10.445Z,24.65
2022-07-26T01:31:15.266Z,24.65
2022-07-26T01:32:19.915Z,24.62
2022-07-26T01:33:24.444Z,24.61
2022-07-26T01:34:28.967Z,24.61
2022-07-26T01:35:33.563Z,24.6
2022-07-26T01:36:39.962Z,24.6
2022-07-26T01:37:44.419Z,24.58
2022-07-26T01:38:48.957Z,24.58
2022-07-26T01:39:53.489Z,24.58
2022-07-26T01:40:58.135Z,24.58
2022-07-26T01:42:02.715Z,24.57
2022-07-26T01:43:07.261Z,24.57
2022-07-26T01:44:13.002Z,24.57
2022-07-26T01:45:17.911Z,24.58
2022-07-26T01:46:22.673Z,24.56
2022-07-26T01:47:27.258Z,24.57
2022-07-26T01:48:32.105Z,24.57
2022-07-26T01:49:36.709Z,24.55
2022-07-26T01:50:41.235Z,24.55
2022-07-26T01:51:45.792Z,24.53
2022-07-26T01:52:50.326Z,24.52
2022-07-26T01:53:55.414Z,24.5
2022-07-26T01:54:59.952Z,24.49
2022-07-26T01:56:04.516Z,24.48
2022-07-26T01:57:09.641Z,24.47
2022-07-26T01:58:14.178Z,24.48
2022-07-26T01:59:18.728Z,24.46
2022-07-26T02:00:23.283Z,24.46
2022-07-26T02:01:39.774Z,24.43
2022-07-26T02:02:54.906Z,24.44
2022-07-26T02:03:59.324Z,24.43
2022-07-26T02:05:04.058Z,24.43
2022-07-26T02:06:14.996Z,24.43
2022-07-26T02:07:19.198Z,24.44
2022-07-26T02:08:24.422Z,24.44
2022-07-26T02:09:39.494Z,24.44
2022-07-26T02:10:44.938Z,24.43
2022-07-26T02:11:49.412Z,24.42
2022-07-26T02:12:54.023Z,24.43
2022-07-26T02:13:58.571Z,24.42
2022-07-26T02:15:03.123Z,24.41
2022-07-26T02:16:07.871Z,24.4
2022-07-26T02:17:12.492Z,24.39
2022-07-26T02:18:17.017Z,24.38
2022-07-26T02:19:21.637Z,24.36
2022-07-26T02:20:26.880Z,24.35
2022-07-26T02:21:31.431Z,24.35
2022-07-26T02:22:35.965Z,24.32
2022-07-26T02:23:42.345Z,24.32
2022-07-26T02:24:46.727Z,24.31
2022-07-26T02:25:51.272Z,24.29
2022-07-26T02:26:55.778Z,24.29
2022-07-26T02:28:00.267Z,24.28
2022-07-26T02:29:04.850Z,24.24
2022-07-26T02:30:09.926Z,24.23
2022-07-26T02:31:15.969Z,24.22
2022-07-26T02:32:20.461Z,24.21
2022-07-26T02:33:24.990Z,24.2
2022-07-26T02:34:34.282Z,24.18
2022-07-26T02:35:38.609Z,24.15
2022-07-26T02:36:43.167Z,24.13
2022-07-26T02:37:47.745Z,24.09
2022-07-26T02:38:53.759Z,24.04
2022-07-26T02:39:58.508Z,24.04
2022-07-26T02:41:03.121Z,24.02
2022-07-26T02:42:07.685Z,24
2022-07-26T02:43:12.357Z,23.99
2022-07-26T02:44:16.865Z,23.96
2022-07-26T02:45:21.400Z,23.95
2022-07-26T02:46:26.140Z,23.94
2022-07-26T02:47:30.706Z,23.9
2022-07-26T02:48:35.656Z,23.89
2022-07-26T02:49:40.243Z,23.88
2022-07-26T02:50:44.774Z,23.87
2022-07-26T02:51:49.312Z,23.86
2022-07-26T02:52:53.862Z,23.85
2022-07-26T02:53:58.362Z,23.83
2022-07-26T02:55:02.902Z,23.81
2022-07-26T02:56:07.392Z,23.8
2022-07-26T02:57:15.391Z,23.78
2022-07-26T02:58:19.765Z,23.77
2022-07-26T02:59:24.262Z,23.75
2022-07-26T03:00:28.822Z,23.72
2022-07-26T03:01:33.534Z,23.71
2022-07-26T03:02:38.388Z,23.68
2022-07-26T03:03:51.339Z,23.65
2022-07-26T03:04:55.538Z,23.6
2022-07-26T03:06:00.053Z,23.58
2022-07-26T03:07:04.582Z,23.55
2022-07-26T03:08:09.106Z,23.51
2022-07-26T03:09:13.601Z,23.45
2022-07-26T03:10:36.621Z,23.38
2022-07-26T03:11:42.525Z,23.32
2022-07-26T03:12:47.027Z,23.29
2022-07-26T03:13:51.807Z,23.28
2022-07-26T03:14:56.277Z,23.25
2022-07-26T03:16:01.158Z,23.22
2022-07-26T03:17:05.790Z,23.19
2022-07-26T03:18:10.292Z,23.12
2022-07-26T03:19:14.794Z,23.11
2022-07-26T03:20:19.289Z,23.05
2022-07-26T03:21:23.815Z,23.04
2022-07-26T03:22:38.387Z,22.99
2022-07-26T03:23:42.508Z,22.95
2022-07-26T03:24:46.964Z,22.94
2022-07-26T03:25:51.454Z,22.9
2022-07-26T03:26:55.983Z,22.87
2022-07-26T03:28:00.483Z,22.86
2022-07-26T03:29:05.005Z,22.81
2022-07-26T03:30:09.528Z,22.8
2022-07-26T03:31:14.234Z,22.78
2022-07-26T03:32:18.798Z,22.77
2022-07-26T03:33:23.382Z,22.75
2022-07-26T03:34:27.903Z,22.75
2022-07-26T03:35:37.016Z,22.72
2022-07-26T03:36:41.336Z,22.72
2022-07-26T03:37:46.952Z,22.7
2022-07-26T03:38:52.012Z,22.7
2022-07-26T03:39:56.739Z,22.68
2022-07-26T03:41:01.981Z,22.68
2022-07-26T03:42:06.513Z,22.65
2022-07-26T03:43:11.164Z,22.66
2022-07-26T03:44:15.717Z,22.64
2022-07-26T03:45:20.224Z,22.64
2022-07-26T03:46:24.970Z,22.63
2022-07-26T03:47:29.553Z,22.62
2022-07-26T03:48:34.295Z,22.63
2022-07-26T03:49:38.971Z,22.64
2022-07-26T03:50:43.496Z,22.63
2022-07-26T03:51:48.074Z,22.64
2022-07-26T03:52:52.581Z,22.65
2022-07-26T03:53:57.173Z,22.67
2022-07-26T03:55:01.703Z,22.67
2022-07-26T03:56:06.256Z,22.68
2022-07-26T03:57:10.796Z,22.69
2022-07-26T03:58:15.306Z,22.7
2022-07-26T03:59:19.806Z,22.71
2022-07-26T04:00:24.318Z,22.72
2022-07-26T04:01:29.026Z,22.71
2022-07-26T04:02:33.874Z,22.73
2022-07-26T04:03:39.052Z,22.74
2022-07-26T04:04:46.646Z,22.75
2022-07-26T04:05:52.939Z,22.76
2022-07-26T04:06:57.304Z,22.79
2022-07-26T04:08:02.256Z,22.8
2022-07-26T04:09:08.266Z,22.82
2022-07-26T04:10:12.671Z,22.83
2022-07-26T04:11:17.218Z,22.83
2022-07-26T04:12:21.745Z,22.82
2022-07-26T04:13:26.519Z,22.84
2022-07-26T04:14:31.048Z,22.83
2022-07-26T04:15:35.364Z,22.82
2022-07-26T04:16:44.212Z,22.81
2022-07-26T04:17:51.777Z,22.79
2022-07-26T04:18:56.200Z,22.75
2022-07-26T04:20:00.660Z,22.66
2022-07-26T04:21:05.442Z,22.65
2022-07-26T04:22:09.902Z,22.63
2022-07-26T04:23:15.872Z,22.65
2022-07-26T04:24:28.446Z,22.63
2022-07-26T04:25:41.637Z,22.62
2022-07-26T04:26:46.043Z,22.64
2022-07-26T04:27:50.509Z,22.62
2022-07-26T04:28:54.996Z,22.62
2022-07-26T04:29:59.730Z,22.58
2022-07-26T04:31:04.431Z,22.57
2022-07-26T04:32:09.216Z,22.54
2022-07-26T04:33:14.264Z,22.53
2022-07-26T04:34:18.742Z,22.52
2022-07-26T04:35:23.262Z,22.53
2022-07-26T04:36:27.779Z,22.53
2022-07-26T04:37:32.285Z,22.52
2022-07-26T04:38:37.134Z,22.54
2022-07-26T04:39:41.698Z,22.54
2022-07-26T04:40:46.341Z,22.56
2022-07-26T04:41:50.850Z,22.56
2022-07-26T04:42:55.386Z,22.59
2022-07-26T04:43:59.902Z,22.58
2022-07-26T04:45:08.958Z,22.6
2022-07-26T04:46:13.542Z,22.61
2022-07-26T04:47:18.169Z,22.62
2022-07-26T04:48:22.696Z,22.64
2022-07-26T04:49:27.232Z,22.67
2022-07-26T04:50:31.711Z,22.7
2022-07-26T04:51:36.264Z,22.71
2022-07-26T04:52:40.761Z,22.73
2022-07-26T04:53:45.541Z,22.75
2022-07-26T04:54:50.607Z,22.76
2022-07-26T04:55:55.167Z,22.77
2022-07-26T04:56:59.671Z,22.78
2022-07-26T04:58:04.165Z,22.8
2022-07-26T04:59:08.778Z,22.81
2022-07-26T05:00:24.008Z,22.81
2022-07-26T05:01:29.600Z,22.8
2022-07-26T05:02:34.290Z,22.83
2022-07-26T05:03:38.917Z,22.83
2022-07-26T05:04:43.428Z,22.86
2022-07-26T05:05:48.018Z,22.86
2022-07-26T05:06:52.539Z,22.86
2022-07-26T05:07:57.086Z,22.9
2022-07-26T05:09:01.607Z,22.88
2022-07-26T05:10:06.123Z,22.9
2022-07-26T05:11:10.686Z,22.9
2022-07-26T05:12:15.223Z,22.9
2022-07-26T05:13:30.991Z,22.9
2022-07-26T05:14:35.255Z,22.9
2022-07-26T05:15:45.026Z,22.91
2022-07-26T05:16:49.454Z,22.9
2022-07-26T05:17:56.094Z,22.92
2022-07-26T05:19:00.495Z,22.92
2022-07-26T05:20:05.059Z,22.93
2022-07-26T05:21:09.589Z,22.94
2022-07-26T05:22:14.105Z,22.95
2022-07-26T05:23:18.593Z,22.95
2022-07-26T05:24:23.153Z,22.97
2022-07-26T05:25:27.677Z,23
2022-07-26T05:26:32.204Z,23.01
2022-07-26T05:27:36.728Z,23.03
2022-07-26T05:28:42.777Z,23.05
2022-07-26T05:29:47.205Z,23.07
2022-07-26T05:30:51.946Z,23.08
2022-07-26T05:31:57.193Z,23.08
2022-07-26T05:33:01.714Z,23.1
2022-07-26T05:34:07.517Z,23.14
2022-07-26T05:35:12.500Z,23.15
2022-07-26T05:36:17.036Z,23.18
2022-07-26T05:37:21.777Z,23.17
2022-07-26T05:38:27.812Z,23.2
2022-07-26T05:39:32.349Z,23.22
2022-07-26T05:40:36.847Z,23.23
2022-07-26T05:41:41.365Z,23.24
2022-07-26T05:42:45.960Z,23.26
2022-07-26T05:43:50.449Z,23.24
2022-07-26T05:44:56.657Z,23.2
2022-07-26T05:46:10.051Z,23.22
2022-07-26T05:47:14.452Z,23.24
2022-07-26T05:48:22.233Z,23.27
2022-07-26T05:49:26.497Z,23.3
2022-07-26T05:50:40.624Z,23.36
2022-07-26T05:51:46.672Z,23.36
2022-07-26T05:52:52.022Z,23.4
2022-07-26T05:53:56.594Z,23.41
2022-07-26T05:55:01.133Z,23.39
2022-07-26T05:56:05.631Z,23.34
2022-07-26T05:57:10.196Z,23.36
2022-07-26T05:58:14.812Z,23.46
2022-07-26T05:59:19.360Z,23.53
2022-07-26T06:00:23.927Z,23.69
2022-07-26T06:01:28.476Z,23.89
2022-07-26T06:02:33.175Z,24.06
2022-07-26T06:03:37.872Z,24.17
2022-07-26T06:04:42.775Z,24.25
2022-07-26T06:05:47.469Z,24.31
2022-07-26T06:06:52.009Z,24.35
2022-07-26T06:07:56.558Z,24.33
2022-07-26T06:09:01.058Z,24.34
2022-07-26T06:10:05.607Z,24.34
2022-07-26T06:11:10.147Z,24.35
2022-07-26T06:12:14.692Z,24.36
2022-07-26T06:13:19.229Z,24.38
2022-07-26T06:14:23.725Z,24.48
2022-07-26T06:15:28.268Z,24.61
2022-07-26T06:16:32.863Z,24.8
2022-07-26T06:17:37.522Z,24.89
2022-07-26T06:18:42.117Z,25.1
2022-07-26T06:19:48.582Z,25.33
2022-07-26T06:20:53.146Z,25.5
2022-07-26T06:21:30.135Z,25.45
2022-07-26T06:24:02.676Z,25.95
2022-07-26T06:25:07.224Z,26.11
2022-07-26T06:26:11.798Z,26.3
2022-07-26T06:27:16.339Z,26.47
2022-07-26T06:28:20.883Z,26.63
2022-07-26T06:29:32.793Z,26.79
2022-07-26T06:30:37.211Z,27.02
2022-07-26T06:31:41.954Z,27.2
2022-07-26T06:32:46.641Z,27.39
2022-07-26T06:33:51.202Z,27.64
2022-07-26T06:34:55.839Z,27.87
2022-07-26T06:36:00.486Z,28.09
2022-07-26T06:37:05.100Z,28.29
2022-07-26T06:38:09.647Z,28.37
2022-07-26T06:39:14.230Z,28.52
2022-07-26T06:40:18.803Z,28.61
2022-07-26T06:41:23.379Z,28.71
2022-07-26T06:42:27.996Z,28.87
2022-07-26T06:43:32.593Z,28.89
2022-07-26T06:44:37.160Z,29.03
2022-07-26T06:45:41.946Z,29.18
2022-07-26T06:46:46.582Z,29.25
2022-07-26T06:47:51.165Z,29.4
2022-07-26T06:48:57.455Z,29.62
2022-07-26T06:50:02.136Z,29.86
2022-07-26T06:51:06.712Z,30.09
2022-07-26T06:52:11.360Z,30.21
2022-07-26T06:53:15.976Z,30.14
2022-07-26T06:54:20.616Z,30.21
2022-07-26T06:55:25.177Z,30.38
2022-07-26T06:56:29.801Z,30.55
2022-07-26T06:57:44.979Z,30.71
2022-07-26T06:58:54.618Z,30.81
2022-07-26T06:59:59.166Z,30.87
2022-07-26T07:01:03.891Z,30.73
2022-07-26T07:02:08.817Z,30.79
2022-07-26T07:03:13.607Z,30.9
2022-07-26T07:04:18.860Z,30.88
2022-07-26T07:05:24.037Z,30.88
2022-07-26T07:06:28.649Z,30.83
2022-07-26T07:07:34.063Z,30.87
2022-07-26T07:08:42.714Z,30.98
2022-07-26T07:09:49.016Z,31.1
2022-07-26T07:10:54.412Z,31.16
2022-07-26T07:12:09.353Z,31.19
2022-07-26T07:13:15.083Z,31.22
2022-07-26T07:14:19.562Z,31.13
2022-07-26T07:15:24.072Z,30.88
2022-07-26T07:16:28.771Z,30.68
2022-07-26T07:17:36.031Z,30.54
2022-07-26T07:18:40.465Z,30.34
2022-07-26T07:19:45.028Z,30.37
2022-07-26T07:20:49.607Z,30.51
2022-07-26T07:21:54.212Z,30.58
2022-07-26T07:22:58.918Z,30.69
2022-07-26T07:24:03.504Z,30.69
2022-07-26T07:25:08.676Z,30.73
2022-07-26T07:26:13.240Z,30.88
2022-07-26T07:27:17.841Z,31.08
2022-07-26T07:28:26.737Z,31.54
2022-07-26T07:29:32.066Z,31.84
2022-07-26T07:30:38.490Z,32.11
2022-07-26T07:31:49.879Z,32.42
2022-07-26T07:32:54.420Z,32.86
2022-07-26T07:33:59.017Z,33.01
2022-07-26T07:35:13.258Z,33.45
2022-07-26T07:36:17.584Z,33.7
2022-07-26T07:37:22.210Z,33.94
2022-07-26T07:38:30.376Z,34.17
2022-07-26T07:39:41.490Z,34.43
2022-07-26T07:40:45.794Z,34.64
2022-07-26T07:41:50.421Z,34.5
2022-07-26T07:42:55.002Z,34.54
2022-07-26T07:43:59.559Z,34.63
2022-07-26T07:45:04.155Z,34.76
2022-07-26T07:46:08.758Z,34.92
2022-07-26T07:47:13.545Z,35.2
2022-07-26T07:48:18.256Z,35.5
2022-07-26T07:49:23.070Z,35.39
2022-07-26T07:50:28.735Z,35.31
2022-07-26T07:51:36.715Z,35.15
2022-07-26T07:52:41.076Z,34.94
2022-07-26T07:53:56.124Z,34.64
2022-07-26T07:55:36.332Z,34.32
2022-07-26T07:56:26.524Z,34.05
2022-07-26T07:57:32.257Z,34
2022-07-26T07:58:36.743Z,33.92
2022-07-26T07:59:41.312Z,34.03
2022-07-26T08:00:48.755Z,34.24
2022-07-26T08:01:53.472Z,34.43
2022-07-26T08:02:58.043Z,34.73
2022-07-26T08:04:02.899Z,34.86
2022-07-26T08:05:15.819Z,35.09
2022-07-26T08:06:20.423Z,35.37
2022-07-26T08:07:36.479Z,35.59
2022-07-26T08:08:43.158Z,35.7
2022-07-26T08:09:47.628Z,36.04
2022-07-26T08:10:53.599Z,36.2
2022-07-26T08:11:58.949Z,36.37
2022-07-26T08:13:10.032Z,36.7
2022-07-26T08:14:18.098Z,36.93
2022-07-26T08:15:22.572Z,37
2022-07-26T08:16:27.488Z,37.08
2022-07-26T08:17:39.851Z,37.33
2022-07-26T08:18:57.494Z,37.48
2022-07-26T08:20:03.378Z,37.67
2022-07-26T08:21:07.960Z,37.86
2022-07-26T08:22:13.487Z,37.8
2022-07-26T08:23:18.034Z,37.76
2022-07-26T08:24:22.614Z,37.76
2022-07-26T08:25:27.221Z,37.87
2022-07-26T08:26:31.814Z,37.95
2022-07-26T08:27:41.560Z,37.94
2022-07-26T08:28:58.640Z,38.14
2022-07-26T08:30:04.480Z,38.35
2022-07-26T08:31:09.338Z,38.2
2022-07-26T08:32:14.092Z,38.35
2022-07-26T08:33:18.689Z,38.58
2022-07-26T08:34:23.305Z,38.5
2022-07-26T08:35:27.835Z,38.16
2022-07-26T08:36:33.475Z,37.78
2022-07-26T08:37:37.960Z,37.64
2022-07-26T08:38:42.502Z,37.44
2022-07-26T08:39:47.074Z,37.32
2022-07-26T08:40:51.685Z,37.44
2022-07-26T08:41:56.284Z,37.54
2022-07-26T08:43:00.913Z,37.59
2022-07-26T08:44:05.551Z,37.67
2022-07-26T08:45:10.144Z,37.9
2022-07-26T08:46:14.908Z,37.99
2022-07-26T08:47:35.245Z,37.96
2022-07-26T08:48:46.151Z,38.15
2022-07-26T08:49:50.703Z,38.14
2022-07-26T08:50:55.276Z,38.24
2022-07-26T08:51:59.889Z,38.23
2022-07-26T08:53:04.667Z,38.35
2022-07-26T08:54:11.892Z,38.33
2022-07-26T08:55:16.322Z,38.6
2022-07-26T08:56:20.892Z,38.5
2022-07-26T08:57:25.496Z,38.65
2022-07-26T08:58:30.103Z,38.78
2022-07-26T08:59:34.685Z,38.76
2022-07-26T09:00:39.390Z,38.84
2022-07-26T09:01:44.092Z,38.78
2022-07-26T09:02:48.894Z,38.7
2022-07-26T09:03:54.335Z,38.58
2022-07-26T09:04:59.017Z,38.49
2022-07-26T09:06:03.569Z,38.34
2022-07-26T09:07:08.171Z,38.28
2022-07-26T09:08:12.737Z,38.34
2022-07-26T09:09:17.360Z,38.19
2022-07-26T09:10:21.951Z,38.29
2022-07-26T09:11:26.663Z,38.17
2022-07-26T09:12:31.285Z,38.04
2022-07-26T09:13:35.828Z,37.78
2022-07-26T09:14:40.388Z,37.77
2022-07-26T09:15:45.127Z,37.74
2022-07-26T09:16:49.864Z,37.81
2022-07-26T09:17:54.566Z,37.86
2022-07-26T09:18:59.185Z,37.88
2022-07-26T09:20:03.758Z,37.96
2022-07-26T09:21:08.349Z,38.04
2022-07-26T09:22:13.010Z,38.08
2022-07-26T09:23:17.612Z,38.25
2022-07-26T09:24:22.230Z,38.23
2022-07-26T09:25:26.841Z,38.29
2022-07-26T09:26:31.480Z,38.29
2022-07-26T09:27:36.079Z,38.4
2022-07-26T09:28:45.490Z,38.43
2022-07-26T09:29:49.869Z,38.49
2022-07-26T09:30:54.756Z,38.57
2022-07-26T09:32:00.282Z,38.56
2022-07-26T09:33:04.967Z,38.6
2022-07-26T09:34:10.606Z,38.49
2022-07-26T09:35:46.220Z,38.21
2022-07-26T09:36:39.490Z,38.03
2022-07-26T09:37:44.110Z,37.77
2022-07-26T09:38:48.702Z,37.36
2022-07-26T09:39:53.180Z,36.98
2022-07-26T09:40:57.791Z,36.81
2022-07-26T09:42:27.730Z,36.76
2022-07-26T09:43:26.290Z,36.92
2022-07-26T09:44:30.937Z,36.93
2022-07-26T09:45:35.479Z,36.99
2022-07-26T09:46:40.311Z,37.17
2022-07-26T09:47:45.002Z,37.24
2022-07-26T09:49:14.890Z,37.11
2022-07-26T09:50:14.026Z,36.83
2022-07-26T09:51:25.564Z,36.59
2022-07-26T09:52:29.784Z,36.37
2022-07-26T09:53:34.316Z,36.2
2022-07-26T09:54:38.840Z,36.14
2022-07-26T09:55:45.522Z,36.09
2022-07-26T09:56:49.933Z,35.92
2022-07-26T09:57:54.504Z,35.58
2022-07-26T09:58:59.095Z,35.42
2022-07-26T10:00:05.121Z,35.18
2022-07-26T10:01:12.247Z,35
2022-07-26T10:02:17.021Z,34.81
2022-07-26T10:03:21.518Z,34.65
2022-07-26T10:04:26.128Z,34.49
2022-07-26T10:05:30.646Z,34.29
2022-07-26T10:06:35.188Z,34.05
2022-07-26T10:07:39.857Z,33.83
2022-07-26T10:08:44.375Z,33.68
2022-07-26T10:09:48.957Z,33.58
2022-07-26T10:10:53.502Z,33.46
2022-07-26T10:11:58.115Z,33.35
2022-07-26T10:13:02.620Z,33.23
2022-07-26T10:14:08.898Z,33.19
2022-07-26T10:15:13.850Z,33.13
2022-07-26T10:16:22.104Z,33
2022-07-26T10:17:32.422Z,32.81
2022-07-26T10:18:40.996Z,32.86
2022-07-26T10:19:47.858Z,32.79
2022-07-26T10:20:52.645Z,33
2022-07-26T10:21:57.230Z,33.18
2022-07-26T10:23:01.816Z,33.36
2022-07-26T10:24:06.713Z,33.58
2022-07-26T10:25:11.767Z,33.78
2022-07-26T10:26:16.343Z,33.96
2022-07-26T10:27:20.908Z,33.69
2022-07-26T10:28:25.488Z,33.72
2022-07-26T10:29:30.009Z,33.64
2022-07-26T10:30:35.758Z,33.48
2022-07-26T10:31:40.405Z,33.29
2022-07-26T10:32:45.025Z,33.06
2022-07-26T10:33:49.530Z,32.87
2022-07-26T10:34:54.056Z,32.69
2022-07-26T10:35:58.603Z,32.31
2022-07-26T10:37:03.120Z,32.17
2022-07-26T10:38:07.636Z,32.05
2022-07-26T10:39:12.189Z,31.82
2022-07-26T10:40:16.746Z,31.68
2022-07-26T10:41:24.111Z,31.57
2022-07-26T10:42:28.500Z,31.47
2022-07-26T10:43:42.389Z,31.31
2022-07-26T10:44:47.273Z,31.17
2022-07-26T10:45:51.789Z,30.95
2022-07-26T10:46:56.542Z,30.9
2022-07-26T10:48:01.215Z,30.89
2022-07-26T10:49:05.888Z,30.99
2022-07-26T10:50:10.621Z,31.1
2022-07-26T10:51:15.258Z,31.31
2022-07-26T10:52:23.383Z,31.52
2022-07-26T10:53:31.326Z,31.67
2022-07-26T10:54:35.701Z,31.73
2022-07-26T10:55:40.245Z,31.83
2022-07-26T10:56:44.813Z,31.95
2022-07-26T10:57:49.408Z,32.01
2022-07-26T10:58:53.956Z,32.04
2022-07-26T10:59:58.549Z,31.96
2022-07-26T11:01:03.105Z,31.84
2022-07-26T11:02:07.866Z,31.73
2022-07-26T11:03:18.103Z,31.63
2022-07-26T11:04:26.199Z,31.53
2022-07-26T11:05:33.477Z,31.43
2022-07-26T11:06:38.553Z,31.07
2022-07-26T11:07:43.088Z,30.88
2022-07-26T11:08:48.706Z,30.7
2022-07-26T11:09:53.163Z,30.5
2022-07-26T11:10:57.701Z,30.24
2022-07-26T11:12:02.233Z,30.25
2022-07-26T11:13:10.335Z,30.31
2022-07-26T11:14:17.449Z,30.49
2022-07-26T11:15:22.687Z,30.67
2022-07-26T11:16:27.423Z,30.78
2022-07-26T11:17:32.138Z,30.86
2022-07-26T11:18:36.703Z,30.99
2022-07-26T11:19:44.839Z,31.11
2022-07-26T11:20:49.249Z,31.2
2022-07-26T11:21:54.402Z,31.21
2022-07-26T11:22:58.920Z,31.21
2022-07-26T11:24:03.474Z,31.28
2022-07-26T11:25:08.091Z,31.27
2022-07-26T11:26:12.653Z,31.16
2022-07-26T11:27:17.152Z,30.75
2022-07-26T11:28:23.760Z,30.79
2022-07-26T11:29:40.930Z,30.78
2022-07-26T11:30:47.187Z,30.75
2022-07-26T11:32:04.772Z,30.61
2022-07-26T11:33:14.557Z,30.51
2022-07-26T11:34:19.046Z,30.52
2022-07-26T11:35:30.264Z,30.49
2022-07-26T11:36:34.846Z,30.55
2022-07-26T11:37:39.339Z,30.46
2022-07-26T11:38:43.863Z,30.49
2022-07-26T11:39:48.413Z,30.5
2022-07-26T11:40:52.972Z,30.46
2022-07-26T11:41:57.536Z,30.42
2022-07-26T11:43:03.180Z,30.43
2022-07-26T11:44:07.710Z,30.29
2022-07-26T11:45:12.301Z,30.2
2022-07-26T11:46:17.046Z,30.21
2022-07-26T11:47:26.953Z,30.2
2022-07-26T11:48:31.411Z,30.12
2022-07-26T11:49:52.700Z,30.12
2022-07-26T11:51:07.196Z,30.02
2022-07-26T11:52:11.402Z,30.01
2022-07-26T11:53:15.895Z,29.98
2022-07-26T11:54:20.377Z,29.86
2022-07-26T11:55:24.948Z,29.77
2022-07-26T11:56:29.417Z,29.66
2022-07-26T11:57:33.951Z,29.6
2022-07-26T11:58:39.066Z,29.46
2022-07-26T11:59:43.614Z,29.46
2022-07-26T12:00:48.133Z,29.55
2022-07-26T12:01:52.678Z,29.61
2022-07-26T12:02:57.263Z,29.68
2022-07-26T12:04:02.259Z,29.75
2022-07-26T12:05:07.551Z,29.82
2022-07-26T12:06:12.222Z,29.88
2022-07-26T12:07:16.773Z,29.93
2022-07-26T12:08:21.815Z,29.95
2022-07-26T12:09:26.340Z,29.96
2022-07-26T12:10:33.613Z,29.93
2022-07-26T12:11:38.031Z,29.92
2022-07-26T12:12:42.579Z,29.93
2022-07-26T12:13:56.324Z,29.92
2022-07-26T12:15:00.856Z,29.9
2022-07-26T12:16:09.013Z,29.89
2022-07-26T12:17:13.460Z,29.85
2022-07-26T12:18:19.560Z,29.83
2022-07-26T12:19:24.552Z,29.81
2022-07-26T12:20:29.047Z,29.8
2022-07-26T12:21:33.580Z,29.8
2022-07-26T12:22:41.726Z,29.8
2022-07-26T12:23:46.203Z,29.8
2022-07-26T12:24:50.914Z,29.82
2022-07-26T12:25:55.452Z,29.83
2022-07-26T12:27:00.146Z,29.83
2022-07-26T12:28:06.270Z,29.83
2022-07-26T12:29:10.653Z,29.83
2022-07-26T12:30:16.758Z,29.83
2022-07-26T12:31:21.630Z,29.83
2022-07-26T12:32:27.886Z,29.83
2022-07-26T12:33:32.363Z,29.83
2022-07-26T12:34:37.005Z,29.84
2022-07-26T12:35:42.623Z,29.84
2022-07-26T12:36:57.127Z,29.83
2022-07-26T12:38:01.406Z,29.81
2022-07-26T12:39:05.955Z,29.84
2022-07-26T12:40:13.322Z,29.84
2022-07-26T12:41:17.796Z,29.62
2022-07-26T12:42:22.282Z,29.58
2022-07-26T12:43:29.516Z,29.44
2022-07-26T12:44:36.508Z,29.35
2022-07-26T12:45:40.931Z,29.35
2022-07-26T12:46:45.886Z,29.33
2022-07-26T12:47:50.609Z,29.32
2022-07-26T12:49:01.305Z,29.31
2022-07-26T12:50:05.794Z,29.23
2022-07-26T12:51:10.415Z,29.25
2022-07-26T12:52:14.907Z,29.23
2022-07-26T12:53:19.480Z,29.24
2022-07-26T12:54:29.761Z,29.18
2022-07-26T12:55:34.630Z,29.15
2022-07-26T12:56:39.568Z,29.15
2022-07-26T12:57:48.006Z,29.11
2022-07-26T12:58:52.318Z,29.06
2022-07-26T12:59:58.440Z,29.06
2022-07-26T13:01:03.110Z,29.05
2022-07-26T13:02:07.722Z,29.05
2022-07-26T13:03:12.280Z,28.98
2022-07-26T13:04:17.725Z,29.03
2022-07-26T13:05:24.640Z,29.03
2022-07-26T13:06:29.213Z,28.92
2022-07-26T13:07:33.733Z,28.91
2022-07-26T13:08:38.243Z,28.98
2022-07-26T13:09:44.315Z,29.01
2022-07-26T13:10:48.766Z,29.03
2022-07-26T13:11:59.914Z,29.05
2022-07-26T13:13:07.821Z,28.99
2022-07-26T13:14:14.821Z,29.06
2022-07-26T13:15:19.245Z,29.08
2022-07-26T13:16:24.030Z,29.15
2022-07-26T13:17:28.728Z,29.19
2022-07-26T13:18:33.295Z,29.2
2022-07-26T13:19:37.878Z,29.24
2022-07-26T13:20:42.516Z,29.28
2022-07-26T13:21:53.388Z,29.3
2022-07-26T13:22:58.043Z,29.3
2022-07-26T13:24:02.608Z,29.32
2022-07-26T13:25:13.199Z,29.34
2022-07-26T13:26:22.349Z,29.34
2022-07-26T13:27:39.244Z,29.3
2022-07-26T13:28:50.252Z,29.31
2022-07-26T13:29:54.607Z,29.32
2022-07-26T13:30:59.450Z,29.32
2022-07-26T13:32:04.069Z,29.35
2022-07-26T13:33:08.584Z,29.34
2022-07-26T13:34:14.783Z,29.34
2022-07-26T13:35:19.421Z,29.36
2022-07-26T13:36:24.503Z,29.37
2022-07-26T13:37:32.561Z,29.34
2022-07-26T13:38:36.914Z,29.37
2022-07-26T13:39:41.453Z,29.36
2022-07-26T13:40:45.966Z,29.36
2022-07-26T13:41:51.684Z,29.33
2022-07-26T13:42:56.168Z,29.31
2022-07-26T13:44:00.695Z,29.29
2022-07-26T13:45:06.723Z,29.27
2022-07-26T13:46:11.496Z,29.23
2022-07-26T13:47:26.153Z,29.18
2022-07-26T13:48:34.038Z,29.15
2022-07-26T13:49:38.754Z,29.15
2022-07-26T13:50:47.004Z,29.15
2022-07-26T13:51:54.312Z,29.12
2022-07-26T13:52:58.897Z,29.1
2022-07-26T13:54:03.393Z,29.08
2022-07-26T13:55:07.933Z,29.08
2022-07-26T13:56:16.873Z,29.07
2022-07-26T13:57:21.867Z,28.99
2022-07-26T13:58:26.393Z,28.94
2022-07-26T13:59:33.407Z,28.94
2022-07-26T14:00:41.561Z,28.93
2022-07-26T14:01:49.030Z,28.95
2022-07-26T14:02:58.860Z,28.96
2022-07-26T14:04:03.947Z,28.96
2022-07-26T14:05:08.429Z,28.95
2022-07-26T14:06:12.952Z,28.92
2022-07-26T14:07:17.482Z,28.82
2022-07-26T14:08:22.097Z,28.81
2022-07-26T14:09:26.786Z,28.74